sensor_id;sensor_type;location;lat;lon;timestamp;pressure;altitude;pressure_sealevel;temperature;humidity
36092;BME280;22147;52.388;13.390;2023-12-04T00:01:25;101380.91;;;-8.95;100.00
36092;BME280;22147;52.388;13.390;2023-12-04T00:03:55;101377.03;;;-8.93;100.00
36092;BME280;22147;52.388;13.390;2023-12-04T00:06:25;101365.63;;;-8.95;100.00
36092;BME280;22147;52.388;13.390;2023-12-04T00:08:55;101363.94;;;-8.96;100.00
36092;BME280;22147;52.388;13.390;2023-12-04T00:11:25;101365.97;;;-8.98;100.00
36092;BME280;22147;52.388;13.390;2023-12-04T00:13:59;101362.94;;;-8.95;100.00
36092;BME280;22147;52.388;13.390;2023-12-04T00:16:29;101363.09;;;-8.96;100.00
36092;BME280;22147;52.388;13.390;2023-12-04T00:18:59;101363.59;;;-8.93;100.00
36092;BME280;22147;52.388;13.390;2023-12-04T00:21:29;101362.72;;;-8.93;100.00
36092;BME280;22147;52.388;13.390;2023-12-04T00:23:59;101365.25;;;-8.92;100.00
36092;BME280;22147;52.388;13.390;2023-12-04T00:26:30;101365.63;;;-8.95;100.00
36092;BME280;22147;52.388;13.390;2023-12-04T00:29:00;101366.06;;;-9.06;100.00
36092;BME280;22147;52.388;13.390;2023-12-04T00:31:30;101368.00;;;-9.15;100.00
36092;BME280;22147;52.388;13.390;2023-12-04T00:34:00;101371.78;;;-9.24;100.00
36092;BME280;22147;52.388;13.390;2023-12-04T00:36:31;101368.50;;;-9.34;100.00
36092;BME280;22147;52.388;13.390;2023-12-04T00:39:01;101366.91;;;-9.44;100.00
36092;BME280;22147;52.388;13.390;2023-12-04T00:41:31;101375.31;;;-9.47;100.00
36092;BME280;22147;52.388;13.390;2023-12-04T00:44:02;101384.44;;;-9.48;100.00
36092;BME280;22147;52.388;13.390;2023-12-04T00:46:32;101379.22;;;-9.49;100.00
36092;BME280;22147;52.388;13.390;2023-12-04T00:49:02;101379.22;;;-9.49;100.00
36092;BME280;22147;52.388;13.390;2023-12-04T00:51:39;101382.09;;;-9.51;100.00
36092;BME280;22147;52.388;13.390;2023-12-04T00:54:09;101382.44;;;-9.54;100.00
36092;BME280;22147;52.388;13.390;2023-12-04T00:56:39;101381.63;;;-9.54;100.00
36092;BME280;22147;52.388;13.390;2023-12-04T00:59:10;101380.59;;;-9.53;100.00
36092;BME280;22147;52.388;13.390;2023-12-04T01:01:40;101377.25;;;-9.55;100.00
36092;BME280;22147;52.388;13.390;2023-12-04T01:04:09;101379.09;;;-9.56;100.00
36092;BME280;22147;52.388;13.390;2023-12-04T01:06:40;101374.84;;;-9.50;100.00
36092;BME280;22147;52.388;13.390;2023-12-04T01:09:10;101378.00;;;-9.47;100.00
36092;BME280;22147;52.388;13.390;2023-12-04T01:11:40;101364.00;;;-9.42;100.00
36092;BME280;22147;52.388;13.390;2023-12-04T01:14:09;101362.63;;;-9.38;100.00
36092;BME280;22147;52.388;13.390;2023-12-04T01:16:39;101359.78;;;-9.36;100.00
36092;BME280;22147;52.388;13.390;2023-12-04T01:19:09;101359.59;;;-9.35;100.00
36092;BME280;22147;52.388;13.390;2023-12-04T01:21:39;101345.94;;;-9.33;100.00
36092;BME280;22147;52.388;13.390;2023-12-04T01:24:09;101352.19;;;-9.33;100.00
36092;BME280;22147;52.388;13.390;2023-12-04T01:26:39;101351.16;;;-9.32;100.00
36092;BME280;22147;52.388;13.390;2023-12-04T01:29:09;101338.53;;;-9.31;100.00
36092;BME280;22147;52.388;13.390;2023-12-04T01:31:39;101341.88;;;-9.29;100.00
36092;BME280;22147;52.388;13.390;2023-12-04T01:34:09;101336.16;;;-9.26;100.00
36092;BME280;22147;52.388;13.390;2023-12-04T01:36:41;101347.38;;;-9.23;100.00
36092;BME280;22147;52.388;13.390;2023-12-04T01:39:10;101324.81;;;-9.22;100.00
36092;BME280;22147;52.388;13.390;2023-12-04T01:41:41;101336.06;;;-9.18;100.00
36092;BME280;22147;52.388;13.390;2023-12-04T01:44:11;101342.09;;;-9.16;100.00
36092;BME280;22147;52.388;13.390;2023-12-04T01:46:42;101335.50;;;-9.13;100.00
36092;BME280;22147;52.388;13.390;2023-12-04T01:49:12;101337.81;;;-9.10;100.00
36092;BME280;22147;52.388;13.390;2023-12-04T01:51:44;101328.38;;;-9.06;100.00
36092;BME280;22147;52.388;13.390;2023-12-04T01:54:14;101329.88;;;-9.04;100.00
36092;BME280;22147;52.388;13.390;2023-12-04T01:56:44;101330.31;;;-9.00;100.00
36092;BME280;22147;52.388;13.390;2023-12-04T01:59:16;101330.91;;;-8.90;100.00
36092;BME280;22147;52.388;13.390;2023-12-04T02:01:46;101334.97;;;-8.79;100.00
36092;BME280;22147;52.388;13.390;2023-12-04T02:04:17;101341.09;;;-8.70;100.00
36092;BME280;22147;52.388;13.390;2023-12-04T02:06:47;101336.66;;;-8.63;100.00
36092;BME280;22147;52.388;13.390;2023-12-04T02:09:17;101330.53;;;-8.57;100.00
36092;BME280;22147;52.388;13.390;2023-12-04T02:11:48;101324.56;;;-8.52;100.00
36092;BME280;22147;52.388;13.390;2023-12-04T02:14:18;101326.06;;;-8.50;100.00
36092;BME280;22147;52.388;13.390;2023-12-04T02:16:50;101320.28;;;-8.47;100.00
36092;BME280;22147;52.388;13.390;2023-12-04T02:19:24;101313.69;;;-8.44;100.00
36092;BME280;22147;52.388;13.390;2023-12-04T02:21:55;101319.72;;;-8.42;100.00
36092;BME280;22147;52.388;13.390;2023-12-04T02:24:25;101321.19;;;-8.40;100.00
36092;BME280;22147;52.388;13.390;2023-12-04T02:27:07;101312.53;;;-8.35;100.00
36092;BME280;22147;52.388;13.390;2023-12-04T02:29:47;101314.81;;;-8.32;100.00
36092;BME280;22147;52.388;13.390;2023-12-04T02:32:27;101306.38;;;-8.29;100.00
36092;BME280;22147;52.388;13.390;2023-12-04T02:35:04;101305.53;;;-8.29;100.00
36092;BME280;22147;52.388;13.390;2023-12-04T02:37:36;101306.19;;;-8.27;100.00
36092;BME280;22147;52.388;13.390;2023-12-04T02:40:11;101298.09;;;-8.27;100.00
36092;BME280;22147;52.388;13.390;2023-12-04T02:42:44;101297.25;;;-8.28;100.00
36092;BME280;22147;52.388;13.390;2023-12-04T02:45:16;101296.41;;;-8.28;100.00
36092;BME280;22147;52.388;13.390;2023-12-04T02:47:47;101294.94;;;-8.31;100.00
36092;BME280;22147;52.388;13.390;2023-12-04T02:50:18;101292.44;;;-8.32;100.00
36092;BME280;22147;52.388;13.390;2023-12-04T02:52:49;101294.47;;;-8.34;100.00
36092;BME280;22147;52.388;13.390;2023-12-04T02:55:20;101289.28;;;-8.36;100.00
36092;BME280;22147;52.388;13.390;2023-12-04T02:57:51;101281.41;;;-8.37;100.00
36092;BME280;22147;52.388;13.390;2023-12-04T03:00:23;101275.38;;;-8.40;100.00
36092;BME280;22147;52.388;13.390;2023-12-04T03:02:54;101279.31;;;-8.42;100.00
36092;BME280;22147;52.388;13.390;2023-12-04T03:05:25;101274.94;;;-8.43;100.00
36092;BME280;22147;52.388;13.390;2023-12-04T03:07:56;101275.97;;;-8.44;100.00
36092;BME280;22147;52.388;13.390;2023-12-04T03:10:27;101269.53;;;-8.43;100.00
36092;BME280;22147;52.388;13.390;2023-12-04T03:12:58;101266.03;;;-8.44;100.00
36092;BME280;22147;52.388;13.390;2023-12-04T03:15:30;101259.41;;;-8.41;100.00
36092;BME280;22147;52.388;13.390;2023-12-04T03:18:01;101252.16;;;-8.41;100.00
36092;BME280;22147;52.388;13.390;2023-12-04T03:20:35;101252.19;;;-8.34;100.00
36092;BME280;22147;52.388;13.390;2023-12-04T03:23:06;101260.50;;;-8.35;100.00
36092;BME280;22147;52.388;13.390;2023-12-04T03:25:37;101260.09;;;-8.32;100.00
36092;BME280;22147;52.388;13.390;2023-12-04T03:28:08;101259.91;;;-8.31;100.00
36092;BME280;22147;52.388;13.390;2023-12-04T03:30:39;101256.00;;;-8.28;100.00
36092;BME280;22147;52.388;13.390;2023-12-04T03:33:11;101255.00;;;-8.27;100.00
36092;BME280;22147;52.388;13.390;2023-12-04T03:35:43;101255.63;;;-8.25;100.00
36092;BME280;22147;52.388;13.390;2023-12-04T03:38:14;101253.59;;;-8.23;100.00
36092;BME280;22147;52.388;13.390;2023-12-04T03:40:45;101249.00;;;-8.23;100.00
36092;BME280;22147;52.388;13.390;2023-12-04T03:43:16;101244.44;;;-8.22;100.00
36092;BME280;22147;52.388;13.390;2023-12-04T03:45:47;101240.94;;;-8.23;100.00
36092;BME280;22147;52.388;13.390;2023-12-04T03:48:16;101237.19;;;-8.22;100.00
36092;BME280;22147;52.388;13.390;2023-12-04T03:50:44;101234.31;;;-8.20;100.00
36092;BME280;22147;52.388;13.390;2023-12-04T03:53:12;101230.78;;;-8.21;100.00
36092;BME280;22147;52.388;13.390;2023-12-04T03:55:41;101224.94;;;-8.24;100.00
36092;BME280;22147;52.388;13.390;2023-12-04T03:58:09;101225.97;;;-8.25;100.00
36092;BME280;22147;52.388;13.390;2023-12-04T04:00:38;101226.34;;;-8.28;100.00
36092;BME280;22147;52.388;13.390;2023-12-04T04:03:10;101230.28;;;-8.31;100.00
36092;BME280;22147;52.388;13.390;2023-12-04T04:05:41;101224.41;;;-8.34;100.00
36092;BME280;22147;52.388;13.390;2023-12-04T04:08:12;101217.38;;;-8.35;100.00
36092;BME280;22147;52.388;13.390;2023-12-04T04:10:43;101222.94;;;-8.37;100.00
36092;BME280;22147;52.388;13.390;2023-12-04T04:13:12;101227.91;;;-8.41;100.00
36092;BME280;22147;52.388;13.390;2023-12-04T04:15:41;101227.47;;;-8.44;100.00
36092;BME280;22147;52.388;13.390;2023-12-04T04:18:12;101222.09;;;-8.44;100.00
36092;BME280;22147;52.388;13.390;2023-12-04T04:20:40;101222.44;;;-8.47;100.00
36092;BME280;22147;52.388;13.390;2023-12-04T04:23:09;101217.25;;;-8.49;100.00
36092;BME280;22147;52.388;13.390;2023-12-04T04:25:37;101230.94;;;-8.50;100.00
36092;BME280;22147;52.388;13.390;2023-12-04T04:28:05;101231.28;;;-8.53;100.00
36092;BME280;22147;52.388;13.390;2023-12-04T04:30:34;101228.59;;;-8.53;100.00
36092;BME280;22147;52.388;13.390;2023-12-04T04:33:02;101225.06;;;-8.54;100.00
36092;BME280;22147;52.388;13.390;2023-12-04T04:35:35;101226.94;;;-8.54;100.00
36092;BME280;22147;52.388;13.390;2023-12-04T04:38:06;101230.66;;;-8.55;100.00
36092;BME280;22147;52.388;13.390;2023-12-04T04:40:34;101225.47;;;-8.57;100.00
36092;BME280;22147;52.388;13.390;2023-12-04T04:43:03;101220.72;;;-8.55;100.00
36092;BME280;22147;52.388;13.390;2023-12-04T04:45:31;101216.16;;;-8.54;100.00
36092;BME280;22147;52.388;13.390;2023-12-04T04:48:00;101213.47;;;-8.54;100.00
36092;BME280;22147;52.388;13.390;2023-12-04T04:50:28;101215.97;;;-8.53;100.00
36092;BME280;22147;52.388;13.390;2023-12-04T04:53:00;101213.28;;;-8.53;100.00
36092;BME280;22147;52.388;13.390;2023-12-04T04:55:28;101209.16;;;-8.49;100.00
36092;BME280;22147;52.388;13.390;2023-12-04T04:58:18;101212.31;;;-8.45;100.00
36092;BME280;22147;52.388;13.390;2023-12-04T05:00:49;101213.16;;;-8.45;100.00
36092;BME280;22147;52.388;13.390;2023-12-04T05:03:19;101206.97;;;-8.39;100.00
36092;BME280;22147;52.388;13.390;2023-12-04T05:05:51;101199.91;;;-8.40;100.00
36092;BME280;22147;52.388;13.390;2023-12-04T05:08:21;101199.09;;;-8.40;100.00
36092;BME280;22147;52.388;13.390;2023-12-04T05:10:52;101196.19;;;-8.39;100.00
36092;BME280;22147;52.388;13.390;2023-12-04T05:13:22;101188.75;;;-8.36;100.00
36092;BME280;22147;52.388;13.390;2023-12-04T05:15:52;101189.38;;;-8.34;100.00
36092;BME280;22147;52.388;13.390;2023-12-04T05:18:21;101191.91;;;-8.33;100.00
36092;BME280;22147;52.388;13.390;2023-12-04T05:20:52;101179.25;;;-8.32;100.00
36092;BME280;22147;52.388;13.390;2023-12-04T05:23:22;101185.75;;;-8.27;100.00
36092;BME280;22147;52.388;13.390;2023-12-04T05:25:52;101175.16;;;-8.28;100.00
36092;BME280;22147;52.388;13.390;2023-12-04T05:28:22;101173.50;;;-8.29;100.00
36092;BME280;22147;52.388;13.390;2023-12-04T05:30:52;101172.44;;;-8.28;100.00
36092;BME280;22147;52.388;13.390;2023-12-04T05:33:22;101160.84;;;-8.29;100.00
36092;BME280;22147;52.388;13.390;2023-12-04T05:35:53;101161.03;;;-8.30;100.00
36092;BME280;22147;52.388;13.390;2023-12-04T05:38:23;101160.19;;;-8.31;100.00
36092;BME280;22147;52.388;13.390;2023-12-04T05:40:53;101156.03;;;-8.33;100.00
36092;BME280;22147;52.388;13.390;2023-12-04T05:43:23;101148.13;;;-8.35;100.00
36092;BME280;22147;52.388;13.390;2023-12-04T05:45:54;101162.25;;;-8.33;100.00
36092;BME280;22147;52.388;13.390;2023-12-04T05:48:23;101160.19;;;-8.31;100.00
36092;BME280;22147;52.388;13.390;2023-12-04T05:50:54;101161.22;;;-8.32;100.00
36092;BME280;22147;52.388;13.390;2023-12-04T05:53:24;101153.78;;;-8.30;100.00
36092;BME280;22147;52.388;13.390;2023-12-04T05:55:54;101164.38;;;-8.28;100.00
36092;BME280;22147;52.388;13.390;2023-12-04T05:58:24;101162.31;;;-8.26;100.00
36092;BME280;22147;52.388;13.390;2023-12-04T06:00:54;101159.25;;;-8.23;100.00
36092;BME280;22147;52.388;13.390;2023-12-04T06:03:24;101156.16;;;-8.20;100.00
36092;BME280;22147;52.388;13.390;2023-12-04T06:05:55;101166.34;;;-8.15;100.00
36092;BME280;22147;52.388;13.390;2023-12-04T06:08:28;101154.34;;;-8.13;100.00
36092;BME280;22147;52.388;13.390;2023-12-04T06:10:59;101160.38;;;-8.11;100.00
36092;BME280;22147;52.388;13.390;2023-12-04T06:13:29;101146.69;;;-8.09;100.00
36092;BME280;22147;52.388;13.390;2023-12-04T06:16:00;101151.50;;;-8.05;100.00
36092;BME280;22147;52.388;13.390;2023-12-04T06:18:29;101155.88;;;-8.04;100.00
36092;BME280;22147;52.388;13.390;2023-12-04T06:20:59;101152.16;;;-8.03;100.00
36092;BME280;22147;52.388;13.390;2023-12-04T06:23:29;101151.78;;;-8.00;100.00
36092;BME280;22147;52.388;13.390;2023-12-04T06:26:00;101163.84;;;-7.95;100.00
36092;BME280;22147;52.388;13.390;2023-12-04T06:28:30;101152.81;;;-7.94;100.00
36092;BME280;22147;52.388;13.390;2023-12-04T06:31:00;101149.94;;;-7.92;100.00
36092;BME280;22147;52.388;13.390;2023-12-04T06:33:31;101142.50;;;-7.90;100.00
36092;BME280;22147;52.388;13.390;2023-12-04T06:36:02;101148.72;;;-7.90;100.00
36092;BME280;22147;52.388;13.390;2023-12-04T06:38:33;101146.66;;;-7.88;100.00
36092;BME280;22147;52.388;13.390;2023-12-04T06:41:09;101143.59;;;-7.85;100.00
36092;BME280;22147;52.388;13.390;2023-12-04T06:43:41;101136.75;;;-7.81;100.00
36092;BME280;22147;52.388;13.390;2023-12-04T06:46:15;101134.09;;;-7.74;100.00
36092;BME280;22147;52.388;13.390;2023-12-04T06:48:48;101127.66;;;-7.73;100.00
36092;BME280;22147;52.388;13.390;2023-12-04T06:51:18;101122.09;;;-7.71;100.00
36092;BME280;22147;52.388;13.390;2023-12-04T06:53:46;101118.97;;;-7.68;100.00
36092;BME280;22147;52.388;13.390;2023-12-04T06:56:15;101113.00;;;-7.64;100.00
36092;BME280;22147;52.388;13.390;2023-12-04T06:58:50;101114.66;;;-7.63;100.00
36092;BME280;22147;52.388;13.390;2023-12-04T07:01:21;101117.81;;;-7.59;100.00
36092;BME280;22147;52.388;13.390;2023-12-04T07:03:50;101108.47;;;-7.57;100.00
36092;BME280;22147;52.388;13.390;2023-12-04T07:06:18;101104.34;;;-7.52;100.00
36092;BME280;22147;52.388;13.390;2023-12-04T07:08:47;101104.16;;;-7.51;100.00
36092;BME280;22147;52.388;13.390;2023-12-04T07:11:15;101109.16;;;-7.48;100.00
36092;BME280;22147;52.388;13.390;2023-12-04T07:13:44;101110.41;;;-7.44;100.00
36092;BME280;22147;52.388;13.390;2023-12-04T07:16:12;101101.94;;;-7.41;100.00
36092;BME280;22147;52.388;13.390;2023-12-04T07:18:40;101101.97;;;-7.34;100.00
36092;BME280;22147;52.388;13.390;2023-12-04T07:21:09;101098.22;;;-7.33;100.00
36092;BME280;22147;52.388;13.390;2023-12-04T07:23:40;101099.66;;;-7.30;100.00
36092;BME280;22147;52.388;13.390;2023-12-04T07:26:09;101102.44;;;-7.17;100.00
36092;BME280;22147;52.388;13.390;2023-12-04T07:28:37;101107.84;;;-7.17;100.00
36092;BME280;22147;52.388;13.390;2023-12-04T07:31:06;101100.56;;;-7.17;100.00
36092;BME280;22147;52.388;13.390;2023-12-04T07:33:37;101104.53;;;-7.12;100.00
36092;BME280;22147;52.388;13.390;2023-12-04T07:36:08;101102.66;;;-7.12;100.00
36092;BME280;22147;52.388;13.390;2023-12-04T07:38:39;101093.13;;;-7.08;100.00
36092;BME280;22147;52.388;13.390;2023-12-04T07:41:08;101100.59;;;-7.03;100.00
36092;BME280;22147;52.388;13.390;2023-12-04T07:43:36;101095.84;;;-7.01;100.00
36092;BME280;22147;52.388;13.390;2023-12-04T07:46:05;101097.09;;;-6.97;100.00
36092;BME280;22147;52.388;13.390;2023-12-04T07:48:36;101093.78;;;-6.92;100.00
36092;BME280;22147;52.388;13.390;2023-12-04T07:51:05;101088.38;;;-6.86;100.00
36092;BME280;22147;52.388;13.390;2023-12-04T07:53:36;101093.41;;;-6.83;100.00
36092;BME280;22147;52.388;13.390;2023-12-04T07:56:08;101096.13;;;-6.76;100.00
36092;BME280;22147;52.388;13.390;2023-12-04T07:58:39;101090.91;;;-6.71;100.00
36092;BME280;22147;52.388;13.390;2023-12-04T08:01:11;101094.28;;;-6.62;100.00
36092;BME280;22147;52.388;13.390;2023-12-04T08:03:42;101087.00;;;-6.55;100.00
36092;BME280;22147;52.388;13.390;2023-12-04T08:06:13;101085.34;;;-6.49;100.00
36092;BME280;22147;52.388;13.390;2023-12-04T08:08:45;101088.88;;;-6.42;100.00
36092;BME280;22147;52.388;13.390;2023-12-04T08:11:16;101095.13;;;-6.35;100.00
36092;BME280;22147;52.388;13.390;2023-12-04T08:13:48;101081.41;;;-6.33;100.00
36092;BME280;22147;52.388;13.390;2023-12-04T08:16:19;101088.69;;;-6.34;100.00
36092;BME280;22147;52.388;13.390;2023-12-04T08:18:51;101075.38;;;-6.29;100.00
36092;BME280;22147;52.388;13.390;2023-12-04T08:21:22;101078.28;;;-6.24;100.00
36092;BME280;22147;52.388;13.390;2023-12-04T08:23:53;101077.88;;;-6.21;100.00
36092;BME280;22147;52.388;13.390;2023-12-04T08:26:25;101080.34;;;-6.12;100.00
36092;BME280;22147;52.388;13.390;2023-12-04T08:28:56;101078.88;;;-6.02;100.00
36092;BME280;22147;52.388;13.390;2023-12-04T08:31:28;101082.16;;;-5.93;100.00
36092;BME280;22147;52.388;13.390;2023-12-04T08:33:59;101077.59;;;-5.86;100.00
36092;BME280;22147;52.388;13.390;2023-12-04T08:36:30;101085.50;;;-5.78;100.00
36092;BME280;22147;52.388;13.390;2023-12-04T08:39:16;101077.38;;;-5.78;100.00
36092;BME280;22147;52.388;13.390;2023-12-04T08:41:47;101073.59;;;-5.70;100.00
36092;BME280;22147;52.388;13.390;2023-12-04T08:44:31;101080.25;;;-5.66;100.00
36092;BME280;22147;52.388;13.390;2023-12-04T08:47:02;101072.94;;;-5.65;100.00
36092;BME280;22147;52.388;13.390;2023-12-04T08:49:32;101059.84;;;-5.62;100.00
36092;BME280;22147;52.388;13.390;2023-12-04T08:52:14;101073.78;;;-5.58;100.00
36092;BME280;22147;52.388;13.390;2023-12-04T08:54:44;101075.47;;;-5.64;100.00
36092;BME280;22147;52.388;13.390;2023-12-04T08:57:15;101076.50;;;-5.65;100.00
36092;BME280;22147;52.388;13.390;2023-12-04T08:59:43;101076.31;;;-5.70;100.00
36092;BME280;22147;52.388;13.390;2023-12-04T09:02:11;101068.00;;;-5.75;100.00
36092;BME280;22147;52.388;13.390;2023-12-04T09:04:43;101074.00;;;-5.60;100.00
36092;BME280;22147;52.388;13.390;2023-12-04T09:07:11;101085.44;;;-5.58;100.00
36092;BME280;22147;52.388;13.390;2023-12-04T09:10:02;101084.78;;;-5.53;100.00
36092;BME280;22147;52.388;13.390;2023-12-04T09:12:43;101078.72;;;-5.48;100.00
36092;BME280;22147;52.388;13.390;2023-12-04T09:15:14;101081.03;;;-5.45;100.00
36092;BME280;22147;52.388;13.390;2023-12-04T09:17:45;101087.44;;;-5.40;100.00
36092;BME280;22147;52.388;13.390;2023-12-04T09:20:16;101090.56;;;-5.36;100.00
36092;BME280;22147;52.388;13.390;2023-12-04T09:22:46;101085.53;;;-5.26;100.00
36092;BME280;22147;52.388;13.390;2023-12-04T09:25:21;101082.78;;;-5.19;100.00
36092;BME280;22147;52.388;13.390;2023-12-04T09:27:51;101078.81;;;-5.17;100.00
36092;BME280;22147;52.388;13.390;2023-12-04T09:30:21;101077.34;;;-5.13;100.00
36092;BME280;22147;52.388;13.390;2023-12-04T09:32:51;101079.81;;;-5.04;100.00
36092;BME280;22147;52.388;13.390;2023-12-04T09:35:21;101079.41;;;-5.01;100.00
36092;BME280;22147;52.388;13.390;2023-12-04T09:37:51;101077.63;;;-4.89;100.00
36092;BME280;22147;52.388;13.390;2023-12-04T09:40:22;101082.81;;;-4.81;100.00
36092;BME280;22147;52.388;13.390;2023-12-04T09:42:52;101081.50;;;-4.72;100.00
36092;BME280;22147;52.388;13.390;2023-12-04T09:45:24;101087.91;;;-4.66;100.00
36092;BME280;22147;52.388;13.390;2023-12-04T09:47:56;101088.72;;;-4.59;100.00
36092;BME280;22147;52.388;13.390;2023-12-04T09:50:26;101088.69;;;-4.52;100.00
36092;BME280;22147;52.388;13.390;2023-12-04T09:53:01;101080.28;;;-4.44;100.00
36092;BME280;22147;52.388;13.390;2023-12-04T09:55:32;101072.50;;;-4.34;100.00
36092;BME280;22147;52.388;13.390;2023-12-04T09:58:02;101076.19;;;-4.28;100.00
36092;BME280;22147;52.388;13.390;2023-12-04T10:00:33;101070.75;;;-4.28;100.00
36092;BME280;22147;52.388;13.390;2023-12-04T10:03:04;101071.59;;;-4.27;100.00
36092;BME280;22147;52.388;13.390;2023-12-04T10:05:34;101064.50;;;-4.28;100.00
36092;BME280;22147;52.388;13.390;2023-12-04T10:08:04;101071.38;;;-4.26;100.00
36092;BME280;22147;52.388;13.390;2023-12-04T10:10:34;101060.91;;;-4.22;100.00
36092;BME280;22147;52.388;13.390;2023-12-04T10:13:05;101057.31;;;-4.16;100.00
36092;BME280;22147;52.388;13.390;2023-12-04T10:15:51;101055.59;;;-4.11;100.00
36092;BME280;22147;52.388;13.390;2023-12-04T10:18:30;101046.78;;;-4.06;100.00
36092;BME280;22147;52.388;13.390;2023-12-04T10:21:01;101053.19;;;-4.00;100.00
36092;BME280;22147;52.388;13.390;2023-12-04T10:23:46;101045.00;;;-3.94;100.00
36092;BME280;22147;52.388;13.390;2023-12-04T10:26:16;101050.13;;;-3.85;100.00
36092;BME280;22147;52.388;13.390;2023-12-04T10:29:03;101041.75;;;-3.84;100.00
36092;BME280;22147;52.388;13.390;2023-12-04T10:31:35;101040.19;;;-3.73;100.00
36092;BME280;22147;52.388;13.390;2023-12-04T10:34:03;101030.31;;;-3.67;100.00
36092;BME280;22147;52.388;13.390;2023-12-04T10:36:39;101024.41;;;-3.64;100.00
36092;BME280;22147;52.388;13.390;2023-12-04T10:39:10;101015.38;;;-3.58;100.00
36092;BME280;22147;52.388;13.390;2023-12-04T10:41:44;101005.56;;;-3.59;100.00
36092;BME280;22147;52.388;13.390;2023-12-04T10:44:16;101010.75;;;-3.58;100.00
36092;BME280;22147;52.388;13.390;2023-12-04T10:46:49;101010.16;;;-3.60;100.00
36092;BME280;22147;52.388;13.390;2023-12-04T10:49:20;100994.19;;;-3.68;100.00
36092;BME280;22147;52.388;13.390;2023-12-04T10:51:55;100996.28;;;-3.52;100.00
36092;BME280;22147;52.388;13.390;2023-12-04T10:54:26;100988.97;;;-3.51;100.00
36092;BME280;22147;52.388;13.390;2023-12-04T10:57:01;100991.31;;;-3.55;100.00
36092;BME280;22147;52.388;13.390;2023-12-04T10:59:38;100977.34;;;-3.58;100.00
36092;BME280;22147;52.388;13.390;2023-12-04T11:02:21;100972.69;;;-3.51;100.00
36092;BME280;22147;52.388;13.390;2023-12-04T11:05:05;100973.03;;;-3.48;100.00
36092;BME280;22147;52.388;13.390;2023-12-04T11:07:51;100966.00;;;-3.37;100.00
36092;BME280;22147;52.388;13.390;2023-12-04T11:11:04;100974.41;;;-3.38;100.00
36092;BME280;22147;52.388;13.390;2023-12-04T11:13:42;100964.94;;;-3.36;100.00
36092;BME280;22147;52.388;13.390;2023-12-04T11:19:35;100967.47;;;-3.22;100.00
36092;BME280;22147;52.388;13.390;2023-12-04T11:22:10;100958.03;;;-3.20;100.00
36092;BME280;22147;52.388;13.390;2023-12-04T11:24:42;100953.38;;;-3.31;100.00
36092;BME280;22147;52.388;13.390;2023-12-04T11:27:19;100951.66;;;-3.25;100.00
36092;BME280;22147;52.388;13.390;2023-12-04T11:29:52;100954.72;;;-3.22;100.00
36092;BME280;22147;52.388;13.390;2023-12-04T11:32:24;100956.75;;;-3.17;100.00
36092;BME280;22147;52.388;13.390;2023-12-04T11:35:02;100953.69;;;-3.09;100.00
36092;BME280;22147;52.388;13.390;2023-12-04T11:37:37;100946.28;;;-3.02;100.00
36092;BME280;22147;52.388;13.390;2023-12-04T11:40:12;100956.81;;;-2.94;100.00
36092;BME280;22147;52.388;13.390;2023-12-04T11:42:46;100935.91;;;-2.93;100.00
36092;BME280;22147;52.388;13.390;2023-12-04T11:45:20;100939.00;;;-2.90;100.00
36092;BME280;22147;52.388;13.390;2023-12-04T11:47:57;100942.84;;;-2.97;100.00
36092;BME280;22147;52.388;13.390;2023-12-04T11:50:29;100940.50;;;-2.94;100.00
36092;BME280;22147;52.388;13.390;2023-12-04T11:53:02;100935.06;;;-2.94;100.00
36092;BME280;22147;52.388;13.390;2023-12-04T11:55:35;100935.91;;;-2.93;100.00
36092;BME280;22147;52.388;13.390;2023-12-04T11:58:12;100934.81;;;-2.92;100.00
36092;BME280;22147;52.388;13.390;2023-12-04T12:00:42;100925.06;;;-2.81;100.00
36092;BME280;22147;52.388;13.390;2023-12-04T12:03:15;100920.19;;;-2.91;100.00
36092;BME280;22147;52.388;13.390;2023-12-04T12:05:51;100922.31;;;-2.93;100.00
36092;BME280;22147;52.388;13.390;2023-12-04T12:08:24;100918.72;;;-3.05;100.00
36092;BME280;22147;52.388;13.390;2023-12-04T12:10:56;100918.72;;;-3.05;100.00
36092;BME280;22147;52.388;13.390;2023-12-04T12:13:26;100912.84;;;-3.02;100.00
36092;BME280;22147;52.388;13.390;2023-12-04T12:15:56;100902.03;;;-3.21;100.00
36092;BME280;22147;52.388;13.390;2023-12-04T12:18:28;100899.78;;;-3.24;100.00
36092;BME280;22147;52.388;13.390;2023-12-04T12:20:59;100901.34;;;-3.28;100.00
36092;BME280;22147;52.388;13.390;2023-12-04T12:23:29;100895.03;;;-3.29;100.00
36092;BME280;22147;52.388;13.390;2023-12-04T12:26:00;100895.03;;;-3.29;100.00
36092;BME280;22147;52.388;13.390;2023-12-04T12:28:31;100890.59;;;-3.23;100.00
36092;BME280;22147;52.388;13.390;2023-12-04T12:31:05;100892.22;;;-3.22;100.00
36092;BME280;22147;52.388;13.390;2023-12-04T12:33:34;100880.44;;;-3.16;100.00
36092;BME280;22147;52.388;13.390;2023-12-04T12:36:05;100884.13;;;-3.10;100.00
36092;BME280;22147;52.388;13.390;2023-12-04T12:38:35;100875.84;;;-3.03;100.00
36092;BME280;22147;52.388;13.390;2023-12-04T12:41:07;100877.00;;;-3.11;100.00
36092;BME280;22147;52.388;13.390;2023-12-04T12:43:42;100868.41;;;-3.08;100.00
36092;BME280;22147;52.388;13.390;2023-12-04T12:46:13;100874.88;;;-3.09;100.00
36092;BME280;22147;52.388;13.390;2023-12-04T12:48:43;100871.72;;;-3.06;100.00
36092;BME280;22147;52.388;13.390;2023-12-04T12:51:14;100863.66;;;-3.01;100.00
36092;BME280;22147;52.388;13.390;2023-12-04T12:53:44;100870.66;;;-2.93;100.00
36092;BME280;22147;52.388;13.390;2023-12-04T12:56:21;100871.47;;;-2.93;100.00